createdAt,value
2016-04-21T08:26:20.758Z,20.84
2016-04-21T08:28:01.450Z,20.8
2016-04-21T08:29:01.439Z,20.57
2016-04-21T08:30:01.441Z,20.25
2016-04-21T08:31:01.443Z,19.91
2016-04-21T08:32:01.447Z,20.32
2016-04-21T08:33:01.449Z,20.16
2016-04-21T08:34:01.452Z,20.26
2016-04-21T08:35:01.439Z,20.67
2016-04-21T08:36:01.441Z,21.12
2016-04-21T08:37:01.460Z,21.39
2016-04-21T08:38:01.446Z,20.95
2016-04-21T08:39:01.449Z,20.99
2016-04-21T08:40:01.468Z,20.84
2016-04-21T08:41:01.454Z,20.81
2016-04-21T08:42:01.474Z,20.96
2016-04-21T08:43:01.444Z,21.3
2016-04-21T08:44:01.463Z,21.55
2016-04-21T08:45:01.466Z,21.39
2016-04-21T08:46:01.452Z,21.47
2016-04-21T08:47:01.454Z,20.96
2016-04-21T08:48:01.474Z,20.81
2016-04-21T08:49:01.477Z,20.81
2016-04-21T08:50:01.463Z,21.06
2016-04-21T08:51:01.450Z,21.42
2016-04-21T08:52:01.468Z,21.3
2016-04-21T08:53:01.461Z,21.27
2016-04-21T08:54:01.448Z,21.37
2016-04-21T08:55:01.497Z,21.6
2016-04-21T08:56:01.453Z,21.49
2016-04-21T08:57:01.455Z,21.39
2016-04-21T08:58:01.458Z,21.33
2016-04-21T08:59:01.477Z,21.57
2016-04-21T09:00:01.463Z,21.64
2016-04-21T09:01:01.466Z,21.75
2016-04-21T09:02:01.470Z,21.39
2016-04-21T09:03:01.456Z,21.54
2016-04-21T09:04:01.458Z,21.55
2016-04-21T09:05:01.477Z,21.47
2016-04-21T09:06:01.543Z,21.69
2016-04-21T09:07:01.467Z,21.79
2016-04-21T09:08:01.454Z,21.7
2016-04-21T09:09:01.457Z,21.91
2016-04-21T09:10:01.460Z,22.03
2016-04-21T09:11:01.462Z,21.67
2016-04-21T09:12:01.465Z,21.7
2016-04-21T09:13:01.482Z,21.82
2016-04-21T09:14:01.455Z,21.58
2016-04-21T09:15:01.458Z,21.76
2016-04-21T09:16:01.476Z,21.92
2016-04-21T09:17:01.462Z,21.92
2016-04-21T09:18:01.465Z,22.23
2016-04-21T09:19:01.498Z,21.99
2016-04-21T09:20:01.471Z,22.14
2016-04-21T09:21:01.473Z,22.29
2016-04-21T09:22:01.476Z,22.39
2016-04-21T09:23:01.463Z,22.21
2016-04-21T09:24:01.466Z,22.1
2016-04-21T09:25:01.469Z,21.89
2016-04-21T09:26:01.456Z,21.64
2016-04-21T09:27:01.475Z,21.61
2016-04-21T09:28:01.462Z,21.79
2016-04-21T09:29:01.480Z,21.69
2016-04-21T09:30:01.467Z,21.4
2016-04-21T09:31:01.469Z,21.17
2016-04-21T09:32:01.472Z,21.15
2016-04-21T09:33:01.474Z,21.39
2016-04-21T09:34:01.461Z,21.52
2016-04-21T09:35:01.464Z,21.75
2016-04-21T09:36:01.499Z,21.93
2016-04-21T09:37:01.469Z,22.11
2016-04-21T09:38:01.472Z,22.46
2016-04-21T09:39:01.459Z,22.72
2016-04-21T09:40:01.478Z,22.35
2016-04-21T09:41:01.480Z,22.51
2016-04-21T09:42:01.483Z,22.62
2016-04-21T09:43:01.470Z,22.44
2016-04-21T09:44:01.488Z,22.36
2016-04-21T09:45:01.476Z,22.53
2016-04-21T09:46:01.478Z,22.36
2016-04-21T09:47:01.481Z,22.03
2016-04-21T09:48:01.484Z,22.02
2016-04-21T09:49:01.486Z,22.1
2016-04-21T09:50:01.474Z,21.99
2016-04-21T09:51:01.492Z,21.89
2016-04-21T09:52:01.478Z,22.2
2016-04-21T09:53:01.482Z,22.14
2016-04-21T09:54:01.484Z,22.08
2016-04-21T09:55:01.471Z,21.95
2016-04-21T09:56:01.490Z,22.02
2016-04-21T09:57:01.476Z,21.58
2016-04-21T09:58:01.495Z,21.65
2016-04-21T09:59:01.481Z,21.72
2016-04-21T10:00:01.485Z,21.64
2016-04-21T10:01:01.487Z,21.73
2016-04-21T10:02:01.490Z,21.51
2016-04-21T10:03:01.478Z,21.4
2016-04-21T10:04:01.480Z,21.42
2016-04-21T10:05:01.482Z,21.92
2016-04-21T10:06:01.500Z,22.23
2016-04-21T10:07:01.503Z,21.91
2016-04-21T10:08:01.491Z,22.16
2016-04-21T10:09:01.477Z,22.14
2016-04-21T10:10:01.496Z,22.03
2016-04-21T10:11:01.531Z,22.01
2016-04-21T10:12:01.562Z,21.51
2016-04-21T10:13:01.608Z,21.07
2016-04-21T10:14:01.655Z,21.64
2016-04-21T10:15:01.718Z,21.89
2016-04-21T10:16:01.728Z,22.07
2016-04-21T10:17:01.763Z,22.07
2016-04-21T10:18:01.765Z,22.2
2016-04-21T10:19:01.784Z,22.48
2016-04-21T10:20:01.788Z,22.01
2016-04-21T10:21:01.798Z,22.03
2016-04-21T10:22:01.806Z,22.02
2016-04-21T10:23:01.800Z,21.98
2016-04-21T10:24:01.808Z,21.96
2016-04-21T10:25:01.847Z,22.14
2016-04-21T10:26:01.822Z,22.35
2016-04-21T10:27:01.857Z,22.36
2016-04-21T10:28:01.831Z,22.55
2016-04-21T10:29:01.836Z,22.4
2016-04-21T10:30:01.825Z,22.28
2016-04-21T10:31:01.829Z,22.13
2016-04-21T10:32:01.848Z,22.36
2016-04-21T10:33:01.851Z,22.5
2016-04-21T10:34:01.838Z,22.62
2016-04-21T10:35:01.842Z,22.42
2016-04-21T10:36:01.845Z,22.78
2016-04-21T10:37:01.864Z,22.68
2016-04-21T10:38:01.837Z,22.62
2016-04-21T10:39:01.839Z,22.42
2016-04-21T10:40:01.842Z,22.48
2016-04-21T10:41:01.845Z,22.54
2016-04-21T10:42:01.848Z,22.35
2016-04-21T10:43:01.851Z,22.28
2016-04-21T10:44:01.837Z,22.68
2016-04-21T10:45:01.856Z,23
2016-04-21T10:46:01.859Z,23.44
2016-04-21T10:47:01.845Z,23.41
2016-04-21T10:48:01.849Z,23.41
2016-04-21T10:49:01.851Z,23.39
2016-04-21T10:50:01.854Z,22.95
2016-04-21T10:51:01.857Z,23.05
2016-04-21T10:52:01.859Z,23.15
2016-04-21T10:53:01.846Z,22.99
2016-04-21T10:54:01.849Z,23.03
2016-04-21T10:55:01.851Z,22.81
2016-04-21T10:56:01.854Z,22.97
2016-04-21T10:57:01.856Z,22.83
2016-04-21T10:58:01.875Z,23.24
2016-04-21T10:59:01.847Z,23.68
2016-04-21T11:00:01.864Z,23.91
2016-04-21T11:01:01.867Z,23.86
2016-04-21T11:02:01.855Z,23.76
2016-04-21T11:03:01.858Z,23.65
2016-04-21T11:04:01.860Z,23.69
2016-04-21T11:05:01.847Z,23.96
2016-04-21T11:06:01.866Z,23.88
2016-04-21T11:07:01.869Z,24.27
2016-04-21T11:08:01.871Z,24.41
2016-04-21T11:09:01.858Z,23.79
2016-04-21T11:10:01.876Z,23.49
2016-04-21T11:11:01.863Z,23.16
2016-04-21T11:12:01.866Z,22.38
2016-04-21T11:13:01.869Z,22.33
2016-04-21T11:14:01.871Z,22.91
2016-04-21T11:15:01.890Z,23.25
2016-04-21T11:16:01.862Z,23.84
2016-04-21T11:17:01.865Z,23.69
2016-04-21T11:18:01.866Z,23.84
2016-04-21T11:19:01.884Z,24.08
2016-04-21T11:20:01.872Z,23.53
2016-04-21T11:21:01.890Z,23.8
2016-04-21T11:22:01.877Z,23.27
2016-04-21T11:23:01.865Z,23.24
2016-04-21T11:24:01.867Z,23.47
2016-04-21T11:25:01.870Z,23.65
2016-04-21T11:26:01.872Z,23.83
2016-04-21T11:27:01.891Z,23.87
2016-04-21T11:28:01.862Z,24.2
2016-04-21T11:29:01.881Z,24.31
2016-04-21T11:30:01.883Z,24.42
2016-04-21T11:31:01.870Z,24.79
2016-04-21T11:32:01.872Z,24.32
2016-04-21T11:33:01.907Z,24.69
2016-04-21T11:34:01.878Z,24.7
2016-04-21T11:35:01.866Z,24.95
2016-04-21T11:36:01.883Z,24.92
2016-04-21T11:37:01.871Z,24.74
2016-04-21T11:38:01.873Z,24.69
2016-04-21T11:39:01.891Z,24.23
2016-04-21T11:40:01.894Z,24.2
2016-04-21T11:41:01.882Z,23.81
2016-04-21T11:42:01.932Z,24.28
2016-04-21T11:43:01.887Z,24.94
2016-04-21T11:44:01.905Z,25.24
2016-04-21T11:45:01.877Z,24.33
2016-04-21T11:46:01.896Z,24.09
2016-04-21T11:47:01.898Z,24.17
2016-04-21T11:48:01.884Z,23.91
2016-04-21T11:49:01.887Z,24.14
2016-04-21T11:50:01.906Z,24.7
2016-04-21T11:51:01.877Z,24.84
2016-04-21T11:52:02.193Z,24.51
2016-04-21T11:53:02.211Z,24.77
2016-04-21T11:54:01.978Z,25.14
2016-04-21T11:55:01.903Z,25.36
2016-04-21T11:56:01.906Z,25.04
2016-04-21T11:57:01.893Z,24.96
2016-04-21T11:58:01.896Z,24.6
2016-04-21T11:59:01.898Z,24.94
2016-04-21T12:00:02.042Z,25.25
2016-04-21T12:01:01.903Z,25.47
2016-04-21T12:02:01.922Z,25.71
2016-04-21T12:03:01.894Z,25.88
2016-04-21T12:04:02.053Z,26.24
2016-04-21T12:05:01.900Z,26.66
2016-04-21T12:06:01.902Z,26.46
2016-04-21T12:07:01.905Z,26.28
2016-04-21T12:08:01.907Z,26.16
2016-04-21T12:09:01.894Z,25.87
2016-04-21T12:10:01.913Z,25.69
2016-04-21T12:11:01.930Z,25.8
2016-04-21T12:12:01.902Z,25.87
2016-04-21T12:13:01.905Z,25.72
2016-04-21T12:14:01.907Z,25.87
2016-04-21T12:15:01.910Z,25.81
2016-04-21T12:16:01.913Z,25.95
2016-04-21T12:17:01.901Z,26.21
2016-04-21T12:18:01.918Z,25.99
2016-04-21T12:19:01.921Z,26.25
2016-04-21T12:20:01.908Z,26.22
2016-04-21T12:21:01.911Z,26.26
2016-04-21T12:22:01.914Z,26.39
2016-04-21T12:23:01.900Z,26.84
2016-04-21T12:24:01.920Z,26.98
2016-04-21T12:25:01.797Z,26.47
2016-04-21T12:26:01.956Z,26.55
2016-04-21T12:27:01.927Z,27.17
2016-04-21T12:28:01.931Z,27.51
2016-04-21T12:29:01.917Z,27.54
2016-04-21T12:30:01.935Z,27.62
2016-04-21T12:31:01.938Z,27.85
2016-04-21T12:32:01.925Z,27.81
2016-04-21T12:33:01.928Z,27.4
2016-04-21T12:34:01.946Z,26.77
2016-04-21T12:35:01.933Z,26.59
2016-04-21T12:36:01.935Z,27
2016-04-21T12:37:01.922Z,27.29
2016-04-21T12:38:01.941Z,27.13
2016-04-21T12:39:01.928Z,27.06
2016-04-21T12:40:01.805Z,26.68
2016-04-21T12:41:01.933Z,26.59
2016-04-21T12:42:01.936Z,25.84
2016-04-21T12:43:01.939Z,26.13
2016-04-21T12:44:01.957Z,25.72
2016-04-21T12:45:01.944Z,25.71
2016-04-21T12:46:01.946Z,25.83
2016-04-21T12:47:01.793Z,26.25
2016-04-21T12:48:01.968Z,26.02
2016-04-21T12:49:01.954Z,26.06
2016-04-21T12:50:01.943Z,25.88
2016-04-21T12:51:01.960Z,25.95
2016-04-21T12:52:01.995Z,25.8
2016-04-21T12:53:01.951Z,25.94
2016-04-21T12:54:01.953Z,25.88
2016-04-21T12:55:01.971Z,26.34
2016-04-21T12:56:01.958Z,26.39
2016-04-21T12:57:01.961Z,26.81
2016-04-21T12:58:01.948Z,26.36
2016-04-21T12:59:01.951Z,26.77
2016-04-21T13:00:01.954Z,26.61
2016-04-21T13:01:01.987Z,26.69
2016-04-21T13:02:01.959Z,26.73
2016-04-21T13:03:01.962Z,26.55
2016-04-21T13:04:01.964Z,26.46
2016-04-21T13:05:01.966Z,26.77
2016-04-21T13:06:01.969Z,27.43
2016-04-21T13:07:01.972Z,27.47
2016-04-21T13:08:01.819Z,27.17
2016-04-21T13:09:01.961Z,27.08
2016-04-21T13:10:01.980Z,26.85
2016-04-21T13:11:01.967Z,26.95
2016-04-21T13:12:01.220Z,27.33
2016-04-21T13:13:01.972Z,26.92
2016-04-21T13:14:01.974Z,26.65
2016-04-21T13:15:01.978Z,26.74
2016-04-21T13:16:01.980Z,26.81
2016-04-21T13:17:02.015Z,27.05
2016-04-21T13:18:01.971Z,27.48
2016-04-21T13:19:01.988Z,27.29
2016-04-21T13:20:01.976Z,27
2016-04-21T13:21:02.073Z,26.88
2016-04-21T13:22:01.982Z,27.4
2016-04-21T13:23:01.985Z,28.11
2016-04-21T13:24:01.987Z,27.99
2016-04-21T13:25:02.004Z,27.59
2016-04-21T13:26:01.976Z,27.29
2016-04-21T13:27:01.978Z,27.29
2016-04-21T13:28:01.982Z,27.47
2016-04-21T13:29:01.984Z,27.76
2016-04-21T13:30:01.987Z,28.38
2016-04-21T13:31:01.990Z,28.6
2016-04-21T13:32:01.993Z,28.66
2016-04-21T13:33:01.995Z,28.94
2016-04-21T13:34:01.998Z,28.92
2016-04-21T13:35:02.001Z,29.03
2016-04-21T13:36:02.003Z,28.59
2016-04-21T13:37:02.006Z,28.42
2016-04-21T13:38:02.227Z,28.91
2016-04-21T13:39:01.996Z,28.82
2016-04-21T13:40:02.249Z,28.77
2016-04-21T13:41:02.189Z,28.96
2016-04-21T13:42:02.005Z,28.59
2016-04-21T13:43:01.850Z,28.57
2016-04-21T13:44:02.009Z,28.27
2016-04-21T13:45:02.014Z,27.96
2016-04-21T13:46:02.017Z,27.68
2016-04-21T13:47:02.020Z,27.66
2016-04-21T13:48:02.007Z,28.07
2016-04-21T13:49:02.010Z,28.3
2016-04-21T13:50:02.028Z,28.78
2016-04-21T13:51:02.061Z,29.08
2016-04-21T13:52:02.017Z,29.41
2016-04-21T13:53:02.020Z,29.74
2016-04-21T13:54:02.022Z,28.91
2016-04-21T13:55:02.025Z,28.65
2016-04-21T13:56:02.012Z,28.79
2016-04-21T13:57:02.031Z,28.81
2016-04-21T13:58:02.017Z,29.2
2016-04-21T13:59:02.020Z,29.29
2016-04-21T14:00:02.022Z,29.27
2016-04-21T14:01:02.558Z,29.41
2016-04-21T14:02:02.028Z,28.51
2016-04-21T14:03:01.906Z,28.92
2016-04-21T14:04:02.041Z,29.11
2016-04-21T14:05:02.027Z,28.48
2016-04-21T14:06:02.029Z,28.29
2016-04-21T14:07:02.032Z,28.3
2016-04-21T14:08:02.035Z,27.89
2016-04-21T14:09:02.038Z,28.38
2016-04-21T14:10:02.041Z,28.38
2016-04-21T14:11:02.043Z,28.32
2016-04-21T14:12:02.046Z,28.26
2016-04-21T14:13:02.033Z,28.65
2016-04-21T14:14:02.052Z,29.2
2016-04-21T14:15:02.039Z,29.41
2016-04-21T14:16:02.056Z,29.53
2016-04-21T14:17:02.044Z,29.27
2016-04-21T14:18:02.047Z,28.75
2016-04-21T14:19:02.050Z,28.97
2016-04-21T14:20:02.052Z,29.13
2016-04-21T14:21:02.056Z,29.3
2016-04-21T14:22:02.073Z,29.59
2016-04-21T14:23:02.054Z,30.05
2016-04-21T14:24:01.323Z,30.12
2016-04-21T14:25:02.044Z,29.76
2016-04-21T14:26:02.046Z,29.53
2016-04-21T14:27:02.050Z,28.84
2016-04-21T14:28:02.052Z,28.73
2016-04-21T14:29:02.055Z,28.72
2016-04-21T14:30:02.058Z,28.48
2016-04-21T14:31:02.060Z,28.03
2016-04-21T14:32:02.063Z,27.93
2016-04-21T14:33:02.082Z,27.68
2016-04-21T14:34:02.068Z,27.61
2016-04-21T14:35:02.071Z,27.99
2016-04-21T14:36:02.073Z,28.15
2016-04-21T14:37:02.061Z,27.8
2016-04-21T14:38:02.048Z,27.89
2016-04-21T14:39:02.067Z,28.38
2016-04-21T14:40:02.069Z,28.18
2016-04-21T14:41:02.086Z,27.83
2016-04-21T14:42:02.059Z,27.95
2016-04-21T14:43:02.061Z,27.71
2016-04-21T14:44:02.064Z,27.15
2016-04-21T14:45:02.067Z,27.21
2016-04-21T14:46:02.054Z,26.87
2016-04-21T14:47:02.088Z,26.39
2016-04-21T14:48:02.075Z,25.93
2016-04-21T14:49:02.063Z,25.51
2016-04-21T14:50:02.080Z,25.26
2016-04-21T14:51:02.068Z,25.17
2016-04-21T14:52:02.055Z,25.01
2016-04-21T14:53:02.057Z,24.73
2016-04-21T14:54:02.059Z,24.54
2016-04-21T14:55:01.890Z,24.39
2016-04-21T14:56:02.049Z,24.41
2016-04-21T14:57:02.037Z,24.41
2016-04-21T14:58:02.040Z,24.45
2016-04-21T14:59:02.043Z,24.86
2016-04-21T15:00:02.029Z,24.7
2016-04-21T15:01:02.031Z,24.64
2016-04-21T15:02:02.035Z,24.7
2016-04-21T15:03:02.037Z,25.06
2016-04-21T15:04:02.024Z,25.06
2016-04-21T15:05:02.043Z,24.98
2016-04-21T15:06:02.029Z,25.01
2016-04-21T15:07:02.017Z,25.32
2016-04-21T15:08:02.019Z,25.62
2016-04-21T15:09:02.006Z,25.28
2016-04-21T15:10:02.009Z,25.11
2016-04-21T15:11:02.012Z,24.84
2016-04-21T15:12:01.999Z,24.63
2016-04-21T15:13:01.845Z,24.57
2016-04-21T15:14:02.005Z,24.58
2016-04-21T15:15:02.038Z,24.56
2016-04-21T15:16:01.994Z,24.46
2016-04-21T15:17:01.996Z,24.41
2016-04-21T15:18:01.999Z,24.57
2016-04-21T15:19:01.846Z,24.64
2016-04-21T15:20:01.989Z,24.96
2016-04-21T15:21:01.976Z,24.58
2016-04-21T15:22:01.979Z,24.7
2016-04-21T15:23:02.013Z,24.54
2016-04-21T15:24:01.984Z,24.53
2016-04-21T15:25:01.971Z,24.23
2016-04-21T15:26:01.974Z,24.23
2016-04-21T15:27:01.961Z,24.21
2016-04-21T15:28:01.963Z,23.8
2016-04-21T15:29:01.966Z,23.65
2016-04-21T15:30:01.954Z,23.5
2016-04-21T15:31:01.957Z,23.53
2016-04-21T15:32:01.943Z,23.44
2016-04-21T15:33:01.945Z,23.4
2016-04-21T15:34:01.949Z,23.32
2016-04-21T15:35:01.967Z,23.2
2016-04-21T15:36:01.939Z,22.93
2016-04-21T15:37:01.926Z,22.83
2016-04-21T15:38:01.928Z,22.53
2016-04-21T15:39:01.931Z,22.28
2016-04-21T15:40:01.934Z,22.01
2016-04-21T15:41:01.921Z,21.89
2016-04-21T15:42:01.908Z,22.01
2016-04-21T15:43:01.911Z,21.89
2016-04-21T15:44:01.913Z,22.02
2016-04-21T15:45:01.900Z,21.91
2016-04-21T15:46:01.903Z,21.98
2016-04-21T15:47:01.889Z,22.05
2016-04-21T15:48:01.892Z,22.29
2016-04-21T15:49:01.880Z,22.33
2016-04-21T15:50:01.882Z,22.73
2016-04-21T15:51:01.869Z,22.79
2016-04-21T15:52:01.872Z,22.72
2016-04-21T15:53:01.860Z,22.6
2016-04-21T15:54:01.862Z,22.51
2016-04-21T15:55:01.849Z,22.47
2016-04-21T15:56:01.852Z,22.31
2016-04-21T15:57:01.871Z,22.17
2016-04-21T15:58:01.841Z,22.23
2016-04-21T15:59:01.829Z,22.21
2016-04-21T16:00:01.832Z,22.14
2016-04-21T16:01:01.818Z,22.02
2016-04-21T16:02:01.821Z,21.91
2016-04-21T16:03:01.823Z,21.8
2016-04-21T16:04:01.811Z,21.75
2016-04-21T16:05:01.798Z,21.76
2016-04-21T16:06:01.801Z,21.49
2016-04-21T16:07:01.803Z,21.37
2016-04-21T16:08:01.790Z,21.43
2016-04-21T16:09:01.792Z,21.49
2016-04-21T16:10:01.780Z,21.49
2016-04-21T16:11:01.798Z,21.43
2016-04-21T16:12:01.769Z,21.49
2016-04-21T16:13:01.757Z,21.51
2016-04-21T16:14:01.759Z,21.65
2016-04-21T16:15:01.747Z,21.62
2016-04-21T16:16:01.749Z,21.54
2016-04-21T16:17:01.736Z,21.57
2016-04-21T16:18:01.739Z,21.6
2016-04-21T16:19:01.726Z,21.65
2016-04-21T16:20:01.729Z,21.69
2016-04-21T16:21:01.716Z,21.58
2016-04-21T16:22:01.718Z,21.65
2016-04-21T16:23:01.736Z,21.64
2016-04-21T16:24:01.708Z,21.79
2016-04-21T16:25:01.710Z,21.79
2016-04-21T16:26:01.698Z,21.8
2016-04-21T16:27:01.685Z,21.76
2016-04-21T16:28:01.688Z,21.75
2016-04-21T16:29:01.674Z,21.62
2016-04-21T16:30:01.677Z,21.72
2016-04-21T16:31:01.665Z,21.91
2016-04-21T16:32:01.652Z,21.83
2016-04-21T16:33:01.654Z,21.75
2016-04-21T16:34:01.657Z,21.79
2016-04-21T16:35:01.644Z,21.69
2016-04-21T16:36:01.647Z,21.6
2016-04-21T16:37:01.634Z,21.58
2016-04-21T16:38:01.637Z,21.51
2016-04-21T16:39:01.623Z,21.52
2016-04-21T16:40:01.611Z,21.42
2016-04-21T16:41:01.597Z,21.33
2016-04-21T16:42:01.601Z,21.36
2016-04-21T16:43:01.603Z,21.3
2016-04-21T16:44:01.590Z,21.2
2016-04-21T16:45:01.577Z,21.24
2016-04-21T16:46:01.580Z,21.27
2016-04-21T16:47:01.583Z,21.35
2016-04-21T16:48:01.570Z,21.39
2016-04-21T16:49:01.572Z,21.49
2016-04-21T16:50:01.575Z,21.52
2016-04-21T16:51:01.547Z,21.62
2016-04-21T16:52:01.550Z,21.6
2016-04-21T16:53:01.536Z,21.67
2016-04-21T16:54:01.539Z,21.47
2016-04-21T16:55:01.557Z,21.61
2016-04-21T16:56:01.513Z,21.69
2016-04-21T16:57:01.516Z,21.76
2016-04-21T16:58:01.518Z,21.76
2016-04-21T16:59:01.505Z,21.69
2016-04-21T17:00:01.493Z,21.75
2016-04-21T17:01:01.496Z,21.79
2016-04-21T17:02:01.685Z,21.83
2016-04-21T17:03:01.501Z,22.02
2016-04-21T17:04:01.488Z,22.02
2016-04-21T17:05:01.474Z,21.89
2016-04-21T17:06:01.462Z,21.79
2016-04-21T17:07:01.465Z,21.72
2016-04-21T17:08:01.452Z,21.67
2016-04-21T17:09:01.454Z,21.67
2016-04-21T17:10:01.457Z,21.51
2016-04-21T17:11:01.429Z,21.45
2016-04-21T17:12:01.431Z,21.3
2016-04-21T17:13:01.433Z,21.32
2016-04-21T17:14:01.264Z,21.27
2016-04-21T17:15:01.408Z,21.21
2016-04-21T17:16:01.411Z,21.17
2016-04-21T17:17:01.413Z,21.17
2016-04-21T17:18:01.400Z,21.06
2016-04-21T17:19:01.419Z,21.07
2016-04-21T17:20:01.437Z,21.02
2016-04-21T17:21:01.377Z,20.91
2016-04-21T17:22:01.380Z,20.91
2016-04-21T17:23:01.367Z,20.81
2016-04-21T17:24:01.355Z,20.8
2016-04-21T17:25:01.372Z,20.7
2016-04-21T17:26:01.141Z,20.6
2016-04-21T17:27:01.347Z,20.4
2016-04-21T17:28:01.333Z,20.4
2016-04-21T17:29:01.336Z,20.21
2016-04-21T17:30:01.323Z,20.26
2016-04-21T17:31:01.341Z,20.16
2016-04-21T17:32:01.313Z,20.09
2016-04-21T17:33:01.316Z,20.13
2016-04-21T17:34:01.302Z,19.92
2016-04-21T17:35:01.290Z,19.81
2016-04-21T17:36:01.308Z,19.74
2016-04-21T17:37:01.279Z,19.84
2016-04-21T17:38:01.282Z,19.81
2016-04-21T17:39:01.270Z,19.81
2016-04-21T17:40:01.257Z,19.79
2016-04-21T17:41:01.259Z,19.76
2016-04-21T17:42:01.246Z,19.56
2016-04-21T17:43:01.234Z,19.61
2016-04-21T17:44:01.236Z,19.55
2016-04-21T17:45:01.223Z,19.44
2016-04-21T17:46:01.209Z,19.41
2016-04-21T17:47:01.213Z,19.34
2016-04-21T17:48:01.200Z,19.48
2016-04-21T17:49:01.187Z,19.4
2016-04-21T17:50:01.189Z,19.43
2016-04-21T17:51:01.192Z,19.33
2016-04-21T17:52:01.180Z,19.31
2016-04-21T17:53:01.166Z,19.34
2016-04-21T17:54:01.153Z,19.27
2016-04-21T17:55:01.141Z,19.25
2016-04-21T17:56:01.158Z,19.3
2016-04-21T17:57:01.146Z,19.44
2016-04-21T17:58:01.133Z,19.37
2016-04-21T17:59:01.119Z,19.41
2016-04-21T18:00:01.108Z,19.34
2016-04-21T18:01:01.110Z,19.27
2016-04-21T18:02:01.112Z,19.25
2016-04-21T18:03:01.085Z,19.31
2016-04-21T18:04:01.088Z,19.14
2016-04-21T18:05:01.076Z,19.18
2016-04-21T18:06:01.063Z,19.15
2016-04-21T18:07:01.050Z,19
2016-04-21T18:08:01.053Z,19.02
2016-04-21T18:09:01.056Z,19.11
2016-04-21T18:10:01.026Z,19
2016-04-21T18:11:00.951Z,19.02
2016-04-21T18:12:01.017Z,18.98
2016-04-21T18:13:01.020Z,19
2016-04-21T18:14:01.022Z,18.98
2016-04-21T18:15:00.992Z,18.85
2016-04-21T18:16:01.012Z,18.74
2016-04-21T18:17:00.983Z,18.6
2016-04-21T18:18:00.974Z,18.6
2016-04-21T18:19:00.960Z,18.6
2016-04-21T18:20:00.963Z,18.68
2016-04-21T18:21:00.951Z,18.6
2016-04-21T18:22:00.938Z,18.62
2016-04-21T18:23:00.927Z,18.51
2016-04-21T18:24:00.929Z,18.55
2016-04-21T18:25:00.915Z,18.48
2016-04-21T18:26:00.965Z,18.41
2016-04-21T18:27:00.905Z,18.34
2016-04-21T18:28:00.892Z,18.29
2016-04-21T18:29:00.879Z,18.34
2016-04-21T18:30:00.866Z,18.27
2016-04-21T18:31:00.885Z,18.23
2016-04-21T18:32:00.856Z,18.26
2016-04-21T18:33:00.874Z,18.19
2016-04-21T18:34:00.831Z,18.12
2016-04-21T18:35:00.817Z,18.07
2016-04-21T18:36:00.820Z,17.95
2016-04-21T18:37:01.573Z,17.89
2016-04-21T18:38:00.807Z,17.83
2016-04-21T18:39:00.795Z,17.79
2016-04-21T18:40:00.781Z,17.77
2016-04-21T18:41:00.112Z,17.68
2016-04-21T18:42:00.850Z,17.7
2016-04-21T18:43:00.758Z,17.63
2016-04-21T18:44:00.745Z,17.54
2016-04-21T18:45:00.733Z,17.59
2016-04-21T18:46:00.720Z,17.54
2016-04-21T18:47:00.972Z,17.45
2016-04-21T18:48:00.553Z,17.36
2016-04-21T18:49:00.697Z,17.39
2016-04-21T18:50:00.699Z,17.24
2016-04-21T18:51:00.686Z,17.23
2016-04-21T18:51:59.923Z,17.09
2016-04-21T18:53:00.661Z,17.08
2016-04-21T18:54:00.491Z,17.01
2016-04-21T18:55:00.649Z,17
2016-04-21T18:56:00.638Z,16.96
2016-04-21T18:57:00.625Z,17.01
2016-04-21T18:58:00.610Z,17.01
2016-04-21T18:59:00.613Z,16.89
2016-04-21T19:00:00.601Z,16.98
2016-04-21T19:01:00.588Z,16.87
2016-04-21T19:02:00.575Z,16.87
2016-04-21T19:03:00.577Z,16.87
2016-04-21T19:04:00.554Z,16.89
2016-04-21T19:05:00.557Z,16.86
2016-04-21T19:06:00.543Z,16.87
2016-04-21T19:07:00.531Z,16.83
2016-04-21T19:08:00.361Z,16.75
2016-04-21T19:09:00.520Z,16.73
2016-04-21T19:10:00.492Z,16.76
2016-04-21T19:11:00.495Z,16.75
2016-04-21T19:12:00.481Z,16.61
2016-04-21T19:13:00.484Z,16.6
2016-04-21T19:14:00.472Z,16.6
2016-04-21T19:15:00.459Z,16.6
2016-04-21T19:16:00.461Z,16.71
2016-04-21T19:17:00.439Z,16.63
2016-04-21T19:18:00.465Z,16.61
2016-04-21T19:19:00.492Z,16.56
2016-04-21T19:20:00.517Z,16.46
2016-04-21T19:21:00.543Z,16.54
2016-04-21T19:22:00.598Z,16.38
2016-04-21T19:23:00.573Z,16.42
2016-04-21T19:24:00.573Z,16.53
2016-04-21T19:24:59.840Z,16.38
2016-04-21T19:26:00.592Z,16.42
2016-04-21T19:27:00.592Z,16.36
2016-04-21T19:28:00.583Z,16.36
2016-04-21T19:29:00.591Z,16.27
2016-04-21T19:30:00.584Z,16.36
2016-04-21T19:31:00.591Z,16.25
2016-04-21T19:32:00.583Z,16.21
2016-04-21T19:33:00.556Z,16.21
2016-04-21T19:34:00.561Z,16.17
2016-04-21T19:35:00.549Z,16.15
2016-04-21T19:36:00.554Z,16.02
2016-04-21T19:37:00.372Z,15.99
2016-04-21T19:38:00.530Z,16.04
2016-04-21T19:39:00.517Z,15.94
2016-04-21T19:40:00.615Z,16.01
2016-04-21T19:41:00.493Z,16.05
2016-04-21T19:42:00.480Z,15.94
2016-04-21T19:43:00.468Z,15.94
2016-04-21T19:44:00.455Z,15.98
2016-04-21T19:45:00.443Z,15.94
2016-04-21T19:46:00.446Z,15.86
2016-04-21T19:47:00.417Z,15.82
2016-04-21T19:48:00.733Z,15.79
2016-04-21T19:49:00.407Z,15.75
2016-04-21T19:50:00.394Z,15.64
2016-04-21T19:51:00.397Z,15.61
2016-04-21T19:52:00.385Z,15.73
2016-04-21T19:53:00.387Z,15.61
2016-04-21T19:54:00.358Z,15.57
2016-04-21T19:55:00.361Z,15.49
2016-04-21T19:56:00.332Z,15.55
2016-04-21T19:57:00.318Z,15.49
2016-04-21T19:58:00.306Z,15.4
2016-04-21T19:59:00.294Z,15.43
2016-04-21T20:00:00.296Z,15.39
2016-04-21T20:01:00.283Z,15.29
2016-04-21T20:02:00.270Z,15.18
2016-04-21T20:03:00.257Z,15.19
2016-04-21T20:04:00.260Z,15.17
2016-04-21T20:05:00.232Z,15.22
2016-04-21T20:06:00.218Z,15.21
2016-04-21T20:07:00.220Z,15.09
2016-04-21T20:08:00.224Z,15.07
2016-04-21T20:09:00.195Z,15.1
2016-04-21T20:10:00.183Z,15.1
2016-04-21T20:11:00.170Z,15.06
2016-04-21T20:11:59.892Z,15.06
2016-04-21T20:13:00.143Z,15.04
2016-04-21T20:14:00.131Z,14.91
2016-04-21T20:15:00.133Z,14.89
2016-04-21T20:16:00.120Z,14.89
2016-04-21T20:17:00.108Z,14.92
2016-04-21T20:18:00.094Z,14.94
2016-04-21T20:19:00.082Z,14.94
2016-04-21T20:20:00.085Z,14.94
2016-04-21T20:21:00.071Z,14.85
2016-04-21T20:22:00.059Z,14.77
2016-04-21T20:23:00.046Z,14.82
2016-04-21T20:24:00.033Z,14.75
2016-04-21T20:25:00.020Z,14.82
2016-04-21T20:26:00.007Z,14.82
2016-04-21T20:27:00.010Z,14.75
2016-04-21T20:27:59.996Z,14.82
2016-04-21T20:28:59.999Z,14.82
2016-04-21T20:29:59.971Z,14.81
2016-04-21T20:30:59.957Z,14.95
2016-04-21T20:31:59.960Z,14.88
2016-04-21T20:32:59.948Z,14.73
2016-04-21T20:33:59.935Z,14.84
2016-04-21T20:34:59.906Z,14.72
2016-04-21T20:35:59.892Z,14.77
2016-04-21T20:36:59.895Z,14.81
2016-04-21T20:37:59.898Z,14.84
2016-04-21T20:38:59.869Z,14.77
2016-04-21T20:39:59.872Z,14.72
2016-04-21T20:40:59.844Z,14.68
2016-04-21T20:41:59.831Z,14.82
2016-04-21T20:42:59.864Z,14.75
2016-04-21T20:43:59.805Z,14.77
2016-04-21T20:44:59.792Z,14.68
2016-04-21T20:45:59.795Z,14.7
2016-04-21T20:46:59.783Z,14.73
2016-04-21T20:47:59.769Z,14.73
2016-04-21T20:48:59.771Z,14.81
2016-04-21T20:49:59.743Z,14.78
2016-04-21T20:50:59.730Z,14.69
2016-04-21T20:51:59.749Z,14.72
2016-04-21T20:52:59.735Z,14.7
2016-04-21T20:53:59.708Z,14.81
2016-04-21T20:54:59.694Z,14.73
2016-04-21T20:55:59.682Z,14.7
2016-04-21T20:56:59.685Z,14.68
2016-04-21T20:57:59.671Z,14.66
2016-04-21T20:58:59.642Z,14.72
2016-04-21T20:59:59.630Z,14.72
2016-04-21T21:00:59.632Z,14.63
2016-04-21T21:01:59.618Z,14.63
2016-04-21T21:02:59.606Z,14.66
2016-04-21T21:03:59.609Z,14.58
2016-04-21T21:04:59.581Z,14.44
2016-04-21T21:05:59.567Z,14.54
2016-04-21T21:06:59.570Z,14.58
2016-04-21T21:07:59.557Z,14.43
2016-04-21T21:08:59.528Z,14.32
2016-04-21T21:09:59.531Z,14.43
2016-04-21T21:10:59.534Z,14.45
2016-04-21T21:11:59.381Z,14.32
2016-04-21T21:12:59.508Z,14.36
2016-04-21T21:13:59.480Z,14.27
2016-04-21T21:14:59.483Z,14.32
2016-04-21T21:15:59.469Z,14.29
2016-04-21T21:16:59.456Z,14.27
2016-04-21T21:17:59.444Z,14.37
2016-04-21T21:18:59.431Z,14.32
2016-04-21T21:19:59.417Z,14.29
2016-04-21T21:20:59.405Z,14.17
2016-04-21T21:21:59.408Z,14.36